KBMG/BMG METAR and TAF weather

Enter ICAO airport designator
Station Type Date Time Source
KBMG METAR 2018/01/22 19:53 UTC NOAA

KBMG 221953Z 18013G20KT 10SM OVC013 12/09 A2959 RMK AO2 PK WND 17027/1858 SLP018 T01220094


Station Type Date Time Source
KBMG Decoded METAR 2018/01/22 19:53 UTC NOAA

MONROE COUNTY AIRPORT, IN, United States (KBMG) 39-09N 086-37W 257M
Jan 22, 2018 - 02:53 PM EST / 2018.01.22 1953 UTC
Wind: from the S (180 degrees) at 15 MPH (13 KT) gusting to 23 MPH (20 KT):0
Visibility: 10 mile(s):0
Sky conditions: overcast
Temperature: 54.0 F (12.2 C)
Dew Point: 48.9 F (9.4 C)
Relative Humidity: 82%
Pressure (altimeter): 29.59 in. Hg (1002 hPa)
ob: KBMG 221953Z 18013G20KT 10SM OVC013 12/09 A2959 RMK AO2 PK WND 17027/1858 SLP018 T01220094
cycle: 20

Station Type Date Time Source
KBMG TAF 2018/01/22 18:22 UTC NOAA

TAF KBMG 221720Z 2218/2318 18015G27KT P6SM VCSH OVC015
FM222200 19013G21KT P6SM VCSH BKN035
FM230000 19012KT P6SM SCT120
FM230100 20011KT P6SM VCSH SCT150
FM230300 22011KT P6SM BKN200
FM230700 22010KT P6SM VCSH OVC030
FM231200 24011KT P6SM OVC020
FM231700 27013KT P6SM OVC015


Example: see airport list